Avila Beach, California
Current Conditions -  °F | °C
As of 2:56 PM on Sunday 21 Dec 2014 (Local Time) from KSBP Reporting Station
Clear Clear  
Wind Chill: 19°   Ceiling: Unl
Heat Index: 19°   Visibility: 10mi
Dew Point: 12°   Wind: 15mph
Humidity: 65%   Direction: 320°NW
Pressure: 30.18"   Gusts: NA
Location:  35.18°N, 120.73°W
Report Text: KSBP 212256Z 32013KT 10SM CLR 19/12 A3018 RMK AO2 SLP218 T01890122
Loading
Personal Weather Stations






























Interactive Weather Map New forecast layout! Learn more

10-Day Weather Forecast

Advertisements
Track Severe Weather on mobile